Wetterstation Vordersexau
Wetterdaten: Woche 13.04.15 - 19.04.15 (KW16)
Datum Zeit Temp. A. Feuchte A. Luftdruck Regen Wind Richtung Taupunkt Windchill Windben
13.04.2015 00:00 7,4 C 81 % 1026,4 hPa 0,0 l/m 0,0 km/h O-SO 4,4 C 7,4 C 0,0 km/h
13.04.2015 01:00 6,5 C 82 % 1026,7 hPa 0,0 l/m 0,0 km/h O-SO 3,7 C 6,5 C 0,0 km/h
13.04.2015 02:00 6,4 C 84 % 1026,3 hPa 0,0 l/m 0,0 km/h O-SO 3,9 C 6,4 C 0,0 km/h
13.04.2015 03:00 6,1 C 84 % 1026,4 hPa 0,0 l/m 0,0 km/h O 3,6 C 6,1 C 0,0 km/h
13.04.2015 04:00 5,4 C 85 % 1026,7 hPa 0,0 l/m 0,0 km/h O-NO 3,1 C 5,4 C 0,0 km/h
13.04.2015 05:00 5,1 C 85 % 1026,9 hPa 0,0 l/m 0,0 km/h SO 2,8 C 5,1 C 0,0 km/h
13.04.2015 06:00 5,5 C 85 % 1027,1 hPa 0,0 l/m 0,0 km/h SO 3,2 C 5,5 C 0,0 km/h
13.04.2015 07:00 6,6 C 85 % 1027,7 hPa 0,0 l/m 0,0 km/h SO 4,3 C 6,6 C 0,0 km/h
13.04.2015 08:00 10,4 C 85 % 1028,5 hPa 0,0 l/m 0,0 km/h SO 8,0 C 10,4 C 0,0 km/h
13.04.2015 09:00 19,5 C 64 % 1028,9 hPa 0,0 l/m 0,0 km/h W 12,5 C 19,5 C 0,0 km/h
13.04.2015 10:00 21,9 C 49 % 1029,1 hPa 0,0 l/m 0,0 km/h W-NW 10,7 C 21,9 C 0,0 km/h
13.04.2015 11:00 23,3 C 44 % 1029,1 hPa 0,0 l/m 10,4 km/h S-SW 10,4 C 22,2 C 5,8 km/h
13.04.2015 12:00 23,5 C 43 % 1028,7 hPa 0,0 l/m 0,0 km/h S-SW 10,2 C 23,5 C 0,0 km/h
13.04.2015 13:00 22,9 C 44 % 1028,2 hPa 0,0 l/m 0,0 km/h W-NW 10,0 C 22,9 C 0,0 km/h
13.04.2015 14:00 25,0 C 36 % 1027,6 hPa 0,0 l/m 3,9 km/h W 8,9 C 25,0 C 2,2 km/h
13.04.2015 15:00 22,8 C 38 % 1026,9 hPa 0,0 l/m 0,0 km/h NW 7,7 C 22,8 C 0,0 km/h
13.04.2015 16:00 21,4 C 43 % 1026,4 hPa 0,0 l/m 1,3 km/h N-NO 8,3 C 21,4 C 0,7 km/h
13.04.2015 17:00 25,6 C 32 % 1026,3 hPa 0,0 l/m 0,0 km/h N-NW 7,7 C 25,6 C 0,0 km/h
13.04.2015 18:00 21,5 C 37 % 1026,1 hPa 0,0 l/m 3,9 km/h N 6,2 C 21,5 C 2,2 km/h
13.04.2015 19:00 18,7 C 43 % 1026,0 hPa 0,0 l/m 0,0 km/h N 5,9 C 18,7 C 0,0 km/h
13.04.2015 20:00 11,6 C 58 % 1026,6 hPa 0,0 l/m 0,0 km/h N-NO 3,6 C 11,6 C 0,0 km/h
13.04.2015 21:00 8,7 C 65 % 1027,3 hPa 0,0 l/m 0,0 km/h O-SO 2,5 C 8,7 C 0,0 km/h
13.04.2015 22:00 8,1 C 72 % 1028,1 hPa 0,0 l/m 0,0 km/h O 3,4 C 8,1 C 0,0 km/h
13.04.2015 23:00 7,9 C 78 % 1028,4 hPa 0,0 l/m 0,0 km/h O-SO 4,3 C 7,9 C 0,0 km/h
14.04.2015 00:00 7,4 C 80 % 1028,8 hPa 0,0 l/m 0,0 km/h O-SO 4,2 C 7,4 C 0,0 km/h
14.04.2015 01:00 6,8 C 82 % 1028,8 hPa 0,0 l/m 0,0 km/h O-SO 3,9 C 6,8 C 0,0 km/h
14.04.2015 02:00 5,6 C 83 % 1028,7 hPa 0,0 l/m 0,0 km/h O-SO 2,9 C 5,6 C 0,0 km/h
14.04.2015 03:00 5,1 C 84 % 1028,7 hPa 0,0 l/m 0,0 km/h O-SO 2,6 C 5,1 C 0,0 km/h
14.04.2015 04:00 4,9 C 85 % 1028,5 hPa 0,0 l/m 0,0 km/h O-SO 2,6 C 4,9 C 0,0 km/h
14.04.2015 05:00 4,4 C 85 % 1028,4 hPa 0,0 l/m 0,0 km/h O-SO 2,1 C 4,4 C 0,0 km/h
14.04.2015 06:00 4,6 C 85 % 1028,5 hPa 0,0 l/m 0,0 km/h O 2,3 C 4,6 C 0,0 km/h
14.04.2015 07:00 5,4 C 84 % 1028,5 hPa 0,0 l/m 0,0 km/h SO 2,9 C 5,4 C 0,0 km/h
14.04.2015 08:00 12,6 C 83 % 1028,7 hPa 0,0 l/m 0,0 km/h O-NO 9,8 C 12,6 C 0,0 km/h
14.04.2015 09:00 19,9 C 55 % 1028,7 hPa 0,0 l/m 0,0 km/h W-NW 10,6 C 19,9 C 0,0 km/h
14.04.2015 10:00 21,5 C 47 % 1028,8 hPa 0,0 l/m 1,9 km/h W-NW 9,7 C 21,5 C 1,1 km/h
14.04.2015 11:00 23,4 C 41 % 1028,4 hPa 0,0 l/m 10,4 km/h W 9,4 C 22,3 C 5,8 km/h
14.04.2015 12:00 25,0 C 35 % 1027,6 hPa 0,0 l/m 1,3 km/h NO 8,5 C 25,0 C 0,7 km/h
14.04.2015 13:00 25,4 C 33 % 1026,8 hPa 0,0 l/m 0,0 km/h SO 7,9 C 25,4 C 0,0 km/h
14.04.2015 14:00 26,8 C 32 % 1026,2 hPa 0,0 l/m 3,9 km/h S-SW 8,7 C 26,8 C 2,2 km/h
14.04.2015 15:00 29,9 C 27 % 1025,1 hPa 0,0 l/m 0,0 km/h S-SW 8,9 C 29,9 C 0,0 km/h
14.04.2015 16:00 31,6 C 25 % 1024,3 hPa 0,0 l/m 0,0 km/h W-NW 9,1 C 31,6 C 0,0 km/h
14.04.2015 17:00 32,1 C 24 % 1023,7 hPa 0,0 l/m 0,0 km/h S-SO 9,0 C 32,1 C 0,0 km/h
14.04.2015 18:00 30,2 C 25 % 1023,3 hPa 0,0 l/m 0,0 km/h S-SO 8,0 C 30,2 C 0,0 km/h
14.04.2015 19:00 21,8 C 37 % 1023,0 hPa 0,0 l/m 38,2 km/h O-SO 6,5 C 16,5 C 21,2 km/h
14.04.2015 20:00 13,9 C 54 % 1022,9 hPa 0,0 l/m 0,0 km/h O-SO 4,7 C 13,9 C 0,0 km/h
14.04.2015 21:00 11,4 C 62 % 1023,1 hPa 0,0 l/m 0,0 km/h SO 4,4 C 11,4 C 0,0 km/h
14.04.2015 22:00 9,6 C 70 % 1022,9 hPa 0,0 l/m 0,0 km/h O-SO 4,4 C 9,6 C 0,0 km/h
14.04.2015 23:00 9,9 C 71 % 1022,6 hPa 0,0 l/m 0,0 km/h O 4,9 C 9,9 C 0,0 km/h
15.04.2015 00:00 8,9 C 73 % 1022,2 hPa 0,0 l/m 0,0 km/h NO 4,3 C 8,9 C 0,0 km/h
15.04.2015 01:00 8,5 C 74 % 1021,6 hPa 0,0 l/m 0,0 km/h SO 4,1 C 8,5 C 0,0 km/h
15.04.2015 02:00 7,8 C 76 % 1021,1 hPa 0,0 l/m 0,0 km/h SO 3,8 C 7,8 C 0,0 km/h
15.04.2015 03:00 7,4 C 77 % 1021,2 hPa 0,0 l/m 0,0 km/h O-NO 3,6 C 7,4 C 0,0 km/h
15.04.2015 04:00 7,3 C 78 % 1020,8 hPa 0,0 l/m 0,0 km/h O-SO 3,7 C 7,3 C 0,0 km/h
15.04.2015 05:00 6,6 C 79 % 1020,1 hPa 0,0 l/m 0,0 km/h SO 3,2 C 6,6 C 0,0 km/h
15.04.2015 06:00 6,5 C 80 % 1019,6 hPa 0,0 l/m 0,0 km/h NO 3,3 C 6,5 C 0,0 km/h
15.04.2015 07:00 7,6 C 78 % 1019,9 hPa 0,0 l/m 0,0 km/h O 4,0 C 7,6 C 0,0 km/h
15.04.2015 08:00 14,6 C 69 % 1019,6 hPa 0,0 l/m 0,0 km/h O-NO 9,0 C 14,6 C 0,0 km/h
15.04.2015 09:00 17,9 C 55 % 1019,4 hPa 0,0 l/m 0,0 km/h N-NW 8,7 C 17,9 C 0,0 km/h
15.04.2015 10:00 20,4 C 49 % 1019,7 hPa 0,0 l/m 0,0 km/h W-SW 9,3 C 20,4 C 0,0 km/h
15.04.2015 11:00 25,3 C 38 % 1018,7 hPa 0,0 l/m 0,0 km/h W 9,9 C 25,3 C 0,0 km/h
15.04.2015 12:00 29,8 C 29 % 1017,9 hPa 0,0 l/m 4,5 km/h SO 9,8 C 29,8 C 2,5 km/h
15.04.2015 13:00 32,4 C 26 % 1017,3 hPa 0,0 l/m 0,0 km/h W-NW 10,4 C 32,4 C 0,0 km/h
15.04.2015 14:00 33,6 C 22 % 1016,5 hPa 0,0 l/m 9,1 km/h W 8,9 C 33,6 C 5,0 km/h
15.04.2015 15:00 34,8 C 19 % 1015,5 hPa 0,0 l/m 10,4 km/h SW 7,7 C 34,8 C 5,8 km/h
15.04.2015 16:00 32,6 C 20 % 1014,6 hPa 0,0 l/m 0,0 km/h W-SW 6,7 C 32,6 C 0,0 km/h
15.04.2015 17:00 29,5 C 22 % 1013,6 hPa 0,0 l/m 3,9 km/h W 5,5 C 29,5 C 2,2 km/h
15.04.2015 18:00 24,9 C 26 % 1013,2 hPa 0,0 l/m 0,0 km/h S-SO 4,1 C 24,9 C 0,0 km/h
15.04.2015 19:00 23,4 C 28 % 1013,0 hPa 0,0 l/m 0,0 km/h O-SO 3,8 C 23,4 C 0,0 km/h
15.04.2015 20:00 16,8 C 40 % 1013,4 hPa 0,0 l/m 0,0 km/h O-NO 3,1 C 16,8 C 0,0 km/h
15.04.2015 21:00 13,8 C 50 % 1013,6 hPa 0,0 l/m 0,0 km/h O-NO 3,6 C 13,8 C 0,0 km/h
15.04.2015 22:00 12,3 C 54 % 1013,6 hPa 0,0 l/m 0,0 km/h O-NO 3,3 C 12,3 C 0,0 km/h
15.04.2015 23:00 11,1 C 58 % 1013,6 hPa 0,0 l/m 0,0 km/h SO 3,2 C 11,1 C 0,0 km/h
16.04.2015 00:00 10,2 C 62 % 1013,9 hPa 0,0 l/m 0,0 km/h SO 3,3 C 10,2 C 0,0 km/h
16.04.2015 01:00 8,9 C 66 % 1013,8 hPa 0,0 l/m 0,0 km/h O-SO 2,9 C 8,9 C 0,0 km/h
16.04.2015 02:00 8,9 C 67 % 1013,5 hPa 0,0 l/m 0,0 km/h O 3,1 C 8,9 C 0,0 km/h
16.04.2015 03:00 8,0 C 71 % 1013,5 hPa 0,0 l/m 0,0 km/h O-NO 3,1 C 8,0 C 0,0 km/h
16.04.2015 04:00 7,8 C 74 % 1013,4 hPa 0,0 l/m 0,0 km/h NO 3,5 C 7,8 C 0,0 km/h
16.04.2015 05:00 7,6 C 73 % 1013,1 hPa 0,0 l/m 0,0 km/h N-NO 3,1 C 7,6 C 0,0 km/h
16.04.2015 06:00 8,1 C 71 % 1013,1 hPa 0,0 l/m 0,0 km/h O-NO 3,2 C 8,1 C 0,0 km/h
16.04.2015 07:00 9,5 C 69 % 1013,6 hPa 0,0 l/m 0,0 km/h O-SO 4,1 C 9,5 C 0,0 km/h
16.04.2015 08:00 12,4 C 64 % 1013,5 hPa 0,0 l/m 0,0 km/h O-NO 5,8 C 12,4 C 0,0 km/h
16.04.2015 09:00 15,6 C 64 % 1013,4 hPa 0,0 l/m 0,0 km/h O-NO 8,8 C 15,6 C 0,0 km/h
16.04.2015 10:00 20,1 C 55 % 1013,8 hPa 0,0 l/m 0,0 km/h W 10,8 C 20,1 C 0,0 km/h
16.04.2015 11:00 19,7 C 41 % 1013,5 hPa 0,0 l/m 0,0 km/h W 6,1 C 19,7 C 0,0 km/h
16.04.2015 12:00 22,4 C 41 % 1013,3 hPa 0,0 l/m 0,0 km/h W-SW 8,5 C 22,4 C 0,0 km/h
16.04.2015 13:00 24,7 C 34 % 1012,3 hPa 0,0 l/m 0,0 km/h W-NW 7,8 C 24,7 C 0,0 km/h
16.04.2015 14:00 27,2 C 28 % 1011,4 hPa 0,0 l/m 25,3 km/h W 7,1 C 25,1 C 14,0 km/h
16.04.2015 15:00 25,4 C 31 % 1011,1 hPa 0,0 l/m 7,8 km/h W 7,0 C 25,1 C 4,3 km/h
16.04.2015 16:00 23,8 C 36 % 1010,5 hPa 0,0 l/m 22,0 km/h W 7,8 C 20,9 C 12,2 km/h
16.04.2015 17:00 22,1 C 38 % 1010,3 hPa 0,0 l/m 19,4 km/h W-SW 7,1 C 19,0 C 10,8 km/h
16.04.2015 18:00 20,3 C 44 % 1010,5 hPa 0,0 l/m 20,1 km/h W-SW 7,6 C 16,6 C 11,2 km/h
16.04.2015 19:00 18,3 C 55 % 1010,8 hPa 0,0 l/m 5,8 km/h SO 9,1 C 18,3 C 3,2 km/h
16.04.2015 20:00 16,1 C 66 % 1010,8 hPa 0,0 l/m 1,9 km/h SO 9,7 C 16,1 C 1,1 km/h
16.04.2015 21:00 15,5 C 67 % 1010,9 hPa 0,0 l/m 1,9 km/h SO 9,4 C 15,5 C 1,1 km/h
16.04.2015 22:00 15,6 C 66 % 1010,8 hPa 0,0 l/m 0,0 km/h O-SO 9,3 C 15,6 C 0,0 km/h
16.04.2015 23:00 14,8 C 72 % 1010,8 hPa 0,0 l/m 0,0 km/h O-SO 9,8 C 14,8 C 0,0 km/h
17.04.2015 00:00 14,1 C 76 % 1010,8 hPa 0,0 l/m 0,0 km/h O-SO 9,9 C 14,1 C 0,0 km/h
17.04.2015 01:00 13,8 C 77 % 1010,5 hPa 0,0 l/m 0,0 km/h O-SO 9,8 C 13,8 C 0,0 km/h
17.04.2015 02:00 13,4 C 78 % 1010,3 hPa 0,0 l/m 0,0 km/h NO 9,6 C 13,4 C 0,0 km/h
17.04.2015 03:00 13,6 C 78 % 1010,1 hPa 0,0 l/m 2,6 km/h N-NO 9,8 C 13,6 C 1,4 km/h
17.04.2015 04:00 15,5 C 69 % 1010,3 hPa 0,0 l/m 1,3 km/h SO 9,8 C 15,5 C 0,7 km/h
17.04.2015 05:00 12,4 C 82 % 1010,4 hPa 2,1 l/m 11,0 km/h SO 9,4 C 9,7 C 6,1 km/h
17.04.2015 06:00 11,9 C 84 % 1010,6 hPa 4,1 l/m 7,1 km/h S-SO 9,3 C 11,4 C 4,0 km/h
17.04.2015 07:00 12,3 C 84 % 1010,9 hPa 0,4 l/m 4,5 km/h S-SO 9,7 C 12,3 C 2,5 km/h
17.04.2015 08:00 12,1 C 84 % 1011,2 hPa 0,4 l/m 4,5 km/h S 9,5 C 12,1 C 2,5 km/h
17.04.2015 09:00 13,1 C 84 % 1011,3 hPa 0,4 l/m 2,6 km/h SW 10,5 C 13,1 C 1,4 km/h
17.04.2015 10:00 13,8 C 82 % 1011,4 hPa 0,0 l/m 7,1 km/h S-SW 10,8 C 13,4 C 4,0 km/h
17.04.2015 11:00 13,8 C 82 % 1011,8 hPa 0,4 l/m 0,0 km/h W-SW 10,8 C 13,8 C 0,0 km/h
17.04.2015 12:00 13,4 C 82 % 1012,0 hPa 0,0 l/m 0,0 km/h S-SO 10,4 C 13,4 C 0,0 km/h
17.04.2015 13:00 13,2 C 84 % 1011,9 hPa 0,8 l/m 5,8 km/h S 10,6 C 13,2 C 3,2 km/h
17.04.2015 14:00 14,1 C 84 % 1011,5 hPa 0,4 l/m 3,2 km/h W 11,4 C 14,1 C 1,8 km/h
17.04.2015 15:00 14,6 C 81 % 1011,5 hPa 0,0 l/m 8,4 km/h SW 11,4 C 13,5 C 4,7 km/h
17.04.2015 16:00 14,6 C 80 % 1011,5 hPa 0,0 l/m 20,7 km/h N-NO 11,2 C 9,1 C 11,5 km/h
17.04.2015 17:00 13,0 C 83 % 1012,1 hPa 0,4 l/m 13,6 km/h SO 10,2 C 9,3 C 7,6 km/h
17.04.2015 18:00 11,1 C 84 % 1012,3 hPa 5,0 l/m 0,0 km/h NW 8,5 C 11,1 C 0,0 km/h
17.04.2015 19:00 10,4 C 84 % 1012,9 hPa 0,8 l/m 0,0 km/h W-NW 7,8 C 10,4 C 0,0 km/h
17.04.2015 20:00 9,1 C 84 % 1013,6 hPa 0,8 l/m 0,0 km/h W 6,5 C 9,1 C 0,0 km/h
17.04.2015 21:00 8,5 C 84 % 1014,5 hPa 0,0 l/m 0,0 km/h S-SW 6,0 C 8,5 C 0,0 km/h
17.04.2015 22:00 8,4 C 83 % 1015,0 hPa 0,4 l/m 0,0 km/h S-SW 5,7 C 8,4 C 0,0 km/h
17.04.2015 23:00 8,3 C 83 % 1015,6 hPa 0,0 l/m 0,0 km/h S-SW 5,6 C 8,3 C 0,0 km/h
18.04.2015 00:00 8,1 C 83 % 1016,2 hPa 0,0 l/m 0,0 km/h S-SW 5,4 C 8,1 C 0,0 km/h
18.04.2015 01:00 7,1 C 84 % 1016,4 hPa 0,0 l/m 0,0 km/h O-NO 4,6 C 7,1 C 0,0 km/h
18.04.2015 02:00 5,9 C 84 % 1016,6 hPa 0,0 l/m 0,0 km/h O-SO 3,4 C 5,9 C 0,0 km/h
18.04.2015 03:00 5,0 C 84 % 1017,0 hPa 0,0 l/m 0,0 km/h O-SO 2,5 C 5,0 C 0,0 km/h
18.04.2015 04:00 3,8 C 85 % 1017,4 hPa 0,0 l/m 0,0 km/h O-SO 1,5 C 3,8 C 0,0 km/h
18.04.2015 05:00 3,1 C 84 % 1017,6 hPa 0,0 l/m 0,0 km/h O-SO 0,7 C 3,1 C 0,0 km/h
18.04.2015 06:00 2,8 C 84 % 1018,2 hPa 0,0 l/m 0,0 km/h O-NO 0,4 C 2,8 C 0,0 km/h
18.04.2015 07:00 3,8 C 82 % 1018,7 hPa 0,0 l/m 0,0 km/h NO 1,0 C 3,8 C 0,0 km/h
18.04.2015 08:00 12,5 C 82 % 1018,8 hPa 0,0 l/m 0,0 km/h SO 9,5 C 12,5 C 0,0 km/h
18.04.2015 09:00 14,3 C 56 % 1018,9 hPa 0,0 l/m 1,3 km/h SO 5,6 C 14,3 C 0,7 km/h
18.04.2015 10:00 14,8 C 49 % 1019,7 hPa 0,0 l/m 8,4 km/h SO 4,2 C 13,7 C 4,7 km/h
18.04.2015 11:00 14,9 C 47 % 1020,1 hPa 0,0 l/m 25,3 km/h O 3,7 C 8,4 C 14,0 km/h
18.04.2015 12:00 16,8 C 44 % 1020,0 hPa 0,0 l/m 0,0 km/h NO 4,5 C 16,8 C 0,0 km/h
18.04.2015 13:00 17,3 C 41 % 1019,6 hPa 0,0 l/m 0,0 km/h NO 3,9 C 17,3 C 0,0 km/h
18.04.2015 14:00 19,1 C 39 % 1019,3 hPa 0,0 l/m 0,0 km/h O-NO 4,8 C 19,1 C 0,0 km/h
18.04.2015 15:00 18,6 C 38 % 1019,0 hPa 0,0 l/m 3,2 km/h O-NO 4,0 C 18,6 C 1,8 km/h
18.04.2015 16:00 20,4 C 33 % 1018,3 hPa 0,0 l/m 0,0 km/h O-SO 3,6 C 20,4 C 0,0 km/h
18.04.2015 17:00 22,5 C 29 % 1018,1 hPa 0,0 l/m 0,0 km/h O-NO 3,6 C 22,5 C 0,0 km/h
18.04.2015 18:00 21,9 C 28 % 1018,3 hPa 0,0 l/m 15,6 km/h O-NO 2,6 C 19,4 C 8,6 km/h
18.04.2015 19:00 15,6 C 35 % 1018,2 hPa 0,0 l/m 0,0 km/h NO 0,2 C 15,6 C 0,0 km/h
18.04.2015 20:00 9,8 C 45 % 1018,6 hPa 0,0 l/m 0,0 km/h O-SO -1,6 C 9,8 C 0,0 km/h
18.04.2015 21:00 5,9 C 58 % 1018,9 hPa 0,0 l/m 0,0 km/h O -1,7 C 5,9 C 0,0 km/h
18.04.2015 22:00 4,3 C 66 % 1019,0 hPa 0,0 l/m 0,0 km/h N-NO -1,5 C 4,3 C 0,0 km/h
18.04.2015 23:00 4,2 C 70 % 1018,4 hPa 0,0 l/m 0,0 km/h N -0,8 C 4,2 C 0,0 km/h
19.04.2015 00:00 2,5 C 72 % 1018,1 hPa 0,0 l/m 0,0 km/h SO -2,0 C 2,5 C 0,0 km/h
19.04.2015 01:00 2,8 C 71 % 1018,0 hPa 0,0 l/m 0,0 km/h SO -1,9 C 2,8 C 0,0 km/h
19.04.2015 02:00 1,3 C 76 % 1017,4 hPa 0,0 l/m 0,0 km/h O -2,5 C 1,3 C 0,0 km/h
19.04.2015 03:00 0,3 C 79 % 1016,9 hPa 0,0 l/m 0,0 km/h O-SO -2,9 C 0,3 C 0,0 km/h
19.04.2015 04:00 -0,5 C 82 % 1016,6 hPa 0,0 l/m 0,0 km/h SO -3,2 C -0,5 C 0,0 km/h
19.04.2015 05:00 0,3 C 83 % 1016,1 hPa 0,0 l/m 0,0 km/h NO -2,2 C 0,3 C 0,0 km/h
19.04.2015 06:00 -0,6 C 84 % 1015,9 hPa 0,0 l/m 0,0 km/h O -3,0 C -0,6 C 0,0 km/h
19.04.2015 07:00 1,2 C 84 % 1015,8 hPa 0,0 l/m 0,0 km/h NW -1,2 C 1,2 C 0,0 km/h
19.04.2015 08:00 11,9 C 63 % 1015,9 hPa 0,0 l/m 0,0 km/h NW 5,1 C 11,9 C 0,0 km/h
19.04.2015 09:00 15,8 C 47 % 1015,4 hPa 0,0 l/m 0,0 km/h NO 4,5 C 15,8 C 0,0 km/h
19.04.2015 10:00 17,7 C 39 % 1015,2 hPa 0,0 l/m 0,0 km/h N-NO 3,6 C 17,7 C 0,0 km/h
19.04.2015 11:00 18,2 C 35 % 1014,8 hPa 0,0 l/m 16,8 km/h O-SO 2,5 C 14,6 C 9,4 km/h
19.04.2015 12:00 21,0 C 33 % 1014,5 hPa 0,0 l/m 0,0 km/h SO 4,1 C 21,0 C 0,0 km/h
19.04.2015 13:00 22,3 C 29 % 1013,9 hPa 0,0 l/m 0,0 km/h O 3,4 C 22,3 C 0,0 km/h
19.04.2015 14:00 23,8 C 26 % 1013,6 hPa 0,0 l/m 0,0 km/h SO 3,1 C 23,8 C 0,0 km/h
19.04.2015 15:00 24,4 C 24 % 1013,0 hPa 0,0 l/m 0,0 km/h SO 2,5 C 24,4 C 0,0 km/h
19.04.2015 16:00 27,3 C 21 % 1012,9 hPa 0,0 l/m 6,5 km/h N-NO 3,1 C 27,3 C 3,6 km/h
19.04.2015 17:00 28,9 C 20 % 1012,8 hPa 0,0 l/m 0,0 km/h S 3,7 C 28,9 C 0,0 km/h
19.04.2015 18:00 26,4 C 20 % 1013,5 hPa 0,0 l/m 0,0 km/h NO 1,6 C 26,4 C 0,0 km/h
19.04.2015 19:00 19,6 C 30 % 1014,0 hPa 0,0 l/m 0,0 km/h N-NO 1,6 C 19,6 C 0,0 km/h
19.04.2015 20:00 12,1 C 42 % 1015,4 hPa 0,0 l/m 0,0 km/h N-NO -0,4 C 12,1 C 0,0 km/h
19.04.2015 21:00 10,0 C 50 % 1016,3 hPa 0,0 l/m 0,0 km/h SO 0,1 C 10,0 C 0,0 km/h
19.04.2015 22:00 9,8 C 53 % 1017,0 hPa 0,0 l/m 3,9 km/h SO 0,7 C 9,8 C 2,2 km/h
19.04.2015 23:00 7,5 C 60 % 1017,7 hPa 0,0 l/m 1,9 km/h O-SO 0,2 C 7,5 C 1,1 km/h
Min-Datum _ 19.04.15 15.04.15 17.04.15 - 13.04.15 - 19.04.15 19.04.15 13.04.15
_ Min-Zeit 06:51 15:51 03:51 - 00:51 - 04:51 06:51 00:51
Minimum _ -0,6 C 19 % 1010,1 hPa - 0,0 km/h - -3,2 C -0,6 C 0,0 km/h
Max-Datum _ 15.04.15 13.04.15 13.04.15 17.04.15 14.04.15 - 13.04.15 15.04.15 14.04.15
_ Max-Zeit 15:51 04:51 10:51 18:51 19:51 - 09:51 15:51 19:51
Maximum _ 34,8 C 85 % 1029,1 hPa 5,0 l/m 38,2 km/h
O-SO
- 12,5 C 34,8 C 21,2 km/h
O-SO
Durchschnitt _ 14,4 C 60 % 1018,5 hPa #16,6 l/m 2,3 km/h O-SO 5,4 C 14,1 C 1,3 km/h
www.sexauwetter.de